RYR4788 LIME-LIRI
Flight info
| Callsign | RYR4788 |
|---|---|
| Flight time | 1h 30m |
| Altitude | 35000 |
| Route | LOGDI DCT OLNUK DCT LOMED DCT VERUN DCT ALAXI DCT TEA/N0340F190 M736 SOR |
| Aircraft | B738/M-SDE3FGILRWY/SB1 |
Departure
| Time | 2026-04-28 18:10 |
|---|---|
| Airport | Il Caravaggio International Airport (LIME) |
Arrival
| Time | 2026-04-28 19:40 |
|---|---|
| Airport | Salerno Costa d'Amalfi Airport (LIRI) |
| Time | Latitude | Longitude | Altitude | Speed | Heading |
|---|---|---|---|---|---|
| 2026-04-28 17:39 | 45.66684 | 9.69800 | 786 ft | 0 kts | 195° |
| 2026-04-28 17:59 | 45.66701 | 9.69807 | 786 ft | 4 kts | 194° |
| 2026-04-28 18:00 | 45.66727 | 9.69816 | 786 ft | 4 kts | 194° |
| 2026-04-28 18:00 | 45.66752 | 9.69824 | 786 ft | 4 kts | 177° |
| 2026-04-28 18:00 | 45.66774 | 9.69812 | 786 ft | 4 kts | 128° |
| 2026-04-28 18:00 | 45.66785 | 9.69782 | 786 ft | 1 kts | 105° |
| 2026-04-28 18:01 | 45.66785 | 9.69781 | 786 ft | 0 kts | 105° |
| 2026-04-28 18:03 | 45.66783 | 9.69792 | 786 ft | 3 kts | 105° |
| 2026-04-28 18:04 | 45.66775 | 9.69832 | 786 ft | 4 kts | 105° |
| 2026-04-28 18:04 | 45.66764 | 9.69887 | 786 ft | 9 kts | 107° |
| 2026-04-28 18:04 | 45.66743 | 9.69993 | 786 ft | 11 kts | 104° |
| 2026-04-28 18:04 | 45.66723 | 9.70107 | 786 ft | 13 kts | 104° |
| 2026-04-28 18:05 | 45.66700 | 9.70237 | 786 ft | 13 kts | 104° |
| 2026-04-28 18:05 | 45.66684 | 9.70322 | 786 ft | 13 kts | 105° |
| 2026-04-28 18:05 | 45.66653 | 9.70486 | 786 ft | 13 kts | 104° |
| 2026-04-28 18:05 | 45.66629 | 9.70611 | 786 ft | 14 kts | 105° |
| 2026-04-28 18:06 | 45.66602 | 9.70763 | 786 ft | 17 kts | 104° |
| 2026-04-28 18:06 | 45.66572 | 9.70920 | 786 ft | 16 kts | 105° |
| 2026-04-28 18:06 | 45.66543 | 9.71070 | 786 ft | 15 kts | 105° |
| 2026-04-28 18:06 | 45.66504 | 9.71212 | 786 ft | 15 kts | 111° |
| 2026-04-28 18:07 | 45.66478 | 9.71349 | 786 ft | 15 kts | 106° |
| 2026-04-28 18:07 | 45.66448 | 9.71500 | 786 ft | 17 kts | 104° |
| 2026-04-28 18:07 | 45.66446 | 9.71666 | 786 ft | 18 kts | 76° |
| 2026-04-28 18:07 | 45.66475 | 9.71847 | 786 ft | 19 kts | 94° |
| 2026-04-28 18:08 | 45.66441 | 9.72028 | 786 ft | 19 kts | 104° |
| 2026-04-28 18:08 | 45.66406 | 9.72222 | 786 ft | 21 kts | 104° |
| 2026-04-28 18:08 | 45.66373 | 9.72411 | 786 ft | 12 kts | 99° |
| 2026-04-28 18:08 | 45.66427 | 9.72457 | 786 ft | 12 kts | 337° |
| 2026-04-28 18:09 | 45.66470 | 9.72380 | 786 ft | 0 kts | 285° |
| 2026-04-28 18:09 | 45.66500 | 9.72215 | 786 ft | 52 kts | 285° |
| 2026-04-28 18:10 | 45.66660 | 9.71363 | 786 ft | 123 kts | 284° |
| 2026-04-28 18:10 | 45.66916 | 9.69922 | 965 ft | 165 kts | 283° |
| 2026-04-28 18:10 | 45.67193 | 9.68322 | 1732 ft | 166 kts | 277° |
| 2026-04-28 18:10 | 45.67010 | 9.66709 | 2499 ft | 168 kts | 239° |
| 2026-04-28 18:11 | 45.66202 | 9.65341 | 2952 ft | 197 kts | 225° |
| 2026-04-28 18:11 | 45.65158 | 9.63899 | 3249 ft | 222 kts | 224° |
| 2026-04-28 18:11 | 45.64013 | 9.62304 | 3670 ft | 237 kts | 225° |
| 2026-04-28 18:11 | 45.62828 | 9.60609 | 4297 ft | 244 kts | 225° |
| 2026-04-28 18:12 | 45.61621 | 9.58872 | 5102 ft | 248 kts | 225° |
| 2026-04-28 18:12 | 45.60397 | 9.57115 | 5690 ft | 250 kts | 223° |
| 2026-04-28 18:12 | 45.58928 | 9.55858 | 6091 ft | 247 kts | 197° |
| 2026-04-28 18:12 | 45.57219 | 9.55480 | 6869 ft | 252 kts | 184° |
| 2026-04-28 18:13 | 45.55458 | 9.55372 | 7701 ft | 255 kts | 182° |
| 2026-04-28 18:13 | 45.53673 | 9.55281 | 8528 ft | 258 kts | 182° |
| 2026-04-28 18:13 | 45.51863 | 9.55172 | 9339 ft | 262 kts | 183° |
| 2026-04-28 18:13 | 45.50033 | 9.55049 | 10134 ft | 265 kts | 183° |
| 2026-04-28 18:14 | 45.48197 | 9.55315 | 10878 ft | 270 kts | 161° |
| 2026-04-28 18:14 | 45.46458 | 9.56339 | 11666 ft | 272 kts | 157° |
| 2026-04-28 18:14 | 45.44714 | 9.57419 | 12402 ft | 276 kts | 157° |
| 2026-04-28 18:14 | 45.42945 | 9.58507 | 13149 ft | 279 kts | 157° |
| 2026-04-28 18:15 | 45.41149 | 9.59599 | 13883 ft | 282 kts | 157° |
| 2026-04-28 18:15 | 45.39335 | 9.60693 | 14599 ft | 285 kts | 158° |
| 2026-04-28 18:15 | 45.37497 | 9.61798 | 15303 ft | 288 kts | 158° |
| 2026-04-28 18:15 | 45.35667 | 9.63053 | 15847 ft | 299 kts | 150° |
| 2026-04-28 18:16 | 45.33832 | 9.64680 | 16002 ft | 322 kts | 147° |
| 2026-04-28 18:16 | 45.31908 | 9.66515 | 16166 ft | 344 kts | 146° |
| 2026-04-28 18:16 | 45.29874 | 9.68471 | 16431 ft | 360 kts | 146° |
| 2026-04-28 18:16 | 45.27773 | 9.70472 | 16974 ft | 367 kts | 147° |
| 2026-04-28 18:17 | 45.25637 | 9.72483 | 17668 ft | 369 kts | 147° |
| 2026-04-28 18:17 | 45.23479 | 9.74495 | 18330 ft | 372 kts | 147° |
| 2026-04-28 18:17 | 45.21301 | 9.76513 | 18954 ft | 376 kts | 147° |
| 2026-04-28 18:17 | 45.19098 | 9.78545 | 19553 ft | 380 kts | 147° |
| 2026-04-28 18:18 | 45.16872 | 9.80593 | 20142 ft | 383 kts | 147° |
| 2026-04-28 18:18 | 45.14626 | 9.82656 | 20721 ft | 386 kts | 147° |
| 2026-04-28 18:18 | 45.12361 | 9.84735 | 21279 ft | 390 kts | 147° |
| 2026-04-28 18:18 | 45.10853 | 9.86118 | 21641 ft | 392 kts | 147° |
| 2026-04-28 18:19 | 45.07777 | 9.88938 | 22344 ft | 396 kts | 147° |
| 2026-04-28 18:19 | 45.05448 | 9.91070 | 22848 ft | 399 kts | 147° |
| 2026-04-28 18:19 | 45.03111 | 9.93208 | 23341 ft | 403 kts | 147° |
| 2026-04-28 18:19 | 45.00749 | 9.95365 | 23823 ft | 406 kts | 147° |
| 2026-04-28 18:20 | 44.98381 | 9.97459 | 24287 ft | 408 kts | 149° |
| 2026-04-28 18:20 | 44.95921 | 9.99498 | 24745 ft | 411 kts | 150° |
| 2026-04-28 18:20 | 44.93430 | 10.01515 | 25187 ft | 414 kts | 150° |
| 2026-04-28 18:20 | 44.90924 | 10.03541 | 25612 ft | 417 kts | 150° |
| 2026-04-28 18:21 | 44.88402 | 10.05591 | 26035 ft | 420 kts | 150° |
| 2026-04-28 18:21 | 44.85866 | 10.07662 | 26439 ft | 422 kts | 150° |
| 2026-04-28 18:21 | 44.83318 | 10.09752 | 26831 ft | 425 kts | 150° |
| 2026-04-28 18:21 | 44.80754 | 10.11856 | 27212 ft | 428 kts | 150° |
| 2026-04-28 18:22 | 44.78175 | 10.13971 | 27584 ft | 430 kts | 150° |
| 2026-04-28 18:22 | 44.75581 | 10.16098 | 27946 ft | 433 kts | 150° |
| 2026-04-28 18:22 | 44.72971 | 10.18233 | 28299 ft | 435 kts | 150° |
| 2026-04-28 18:22 | 44.70357 | 10.20436 | 28362 ft | 443 kts | 146° |
| 2026-04-28 18:23 | 44.67822 | 10.22976 | 28499 ft | 451 kts | 142° |
| 2026-04-28 18:23 | 44.65341 | 10.25699 | 28858 ft | 453 kts | 141° |
| 2026-04-28 18:23 | 44.62876 | 10.28467 | 29293 ft | 454 kts | 141° |
| 2026-04-28 18:23 | 44.60368 | 10.31262 | 29684 ft | 456 kts | 141° |
| 2026-04-28 18:24 | 44.57897 | 10.33973 | 30016 ft | 458 kts | 142° |
| 2026-04-28 18:24 | 44.56187 | 10.35825 | 30204 ft | 460 kts | 142° |
| 2026-04-28 18:24 | 44.52812 | 10.39446 | 30583 ft | 463 kts | 142° |
| 2026-04-28 18:24 | 44.50246 | 10.42184 | 30866 ft | 464 kts | 142° |
| 2026-04-28 18:25 | 44.47670 | 10.44927 | 31165 ft | 466 kts | 142° |
| 2026-04-28 18:25 | 44.45089 | 10.47676 | 31420 ft | 468 kts | 142° |
| 2026-04-28 18:25 | 44.42491 | 10.50442 | 31676 ft | 470 kts | 142° |
| 2026-04-28 18:26 | 44.37327 | 10.56044 | 32337 ft | 468 kts | 138° |
| 2026-04-28 18:26 | 44.34905 | 10.59062 | 32749 ft | 466 kts | 136° |
| 2026-04-28 18:26 | 44.32529 | 10.62137 | 33114 ft | 465 kts | 136° |
| 2026-04-28 18:26 | 44.30173 | 10.65219 | 33438 ft | 465 kts | 136° |
| 2026-04-28 18:27 | 44.27811 | 10.68298 | 33752 ft | 465 kts | 136° |
| 2026-04-28 18:27 | 44.25444 | 10.71361 | 34087 ft | 463 kts | 136° |
| 2026-04-28 18:27 | 44.23076 | 10.74402 | 34400 ft | 462 kts | 136° |
| 2026-04-28 18:27 | 44.20708 | 10.77430 | 34674 ft | 462 kts | 136° |
| 2026-04-28 18:28 | 44.18341 | 10.80446 | 34935 ft | 461 kts | 136° |
| 2026-04-28 18:28 | 44.15972 | 10.83459 | 35203 ft | 461 kts | 136° |
| 2026-04-28 18:28 | 44.13604 | 10.86470 | 35483 ft | 460 kts | 136° |
| 2026-04-28 18:28 | 44.11241 | 10.89472 | 35732 ft | 460 kts | 137° |
| 2026-04-28 18:29 | 44.08879 | 10.92469 | 35984 ft | 459 kts | 137° |
| 2026-04-28 18:29 | 44.06520 | 10.95462 | 36219 ft | 459 kts | 137° |
| 2026-04-28 18:29 | 44.04165 | 10.98444 | 36460 ft | 459 kts | 137° |
| 2026-04-28 18:29 | 44.01805 | 11.01427 | 36691 ft | 458 kts | 137° |
| 2026-04-28 18:30 | 43.99437 | 11.04396 | 36896 ft | 459 kts | 137° |
| 2026-04-28 18:30 | 43.94685 | 11.10319 | 37324 ft | 458 kts | 137° |
| 2026-04-28 18:30 | 43.92312 | 11.13270 | 37547 ft | 458 kts | 137° |
| 2026-04-28 18:31 | 43.89942 | 11.16218 | 37768 ft | 457 kts | 137° |
| 2026-04-28 18:31 | 43.87579 | 11.19154 | 37972 ft | 457 kts | 137° |
| 2026-04-28 18:31 | 43.85207 | 11.22102 | 38135 ft | 458 kts | 137° |
| 2026-04-28 18:31 | 43.82833 | 11.25048 | 38325 ft | 458 kts | 138° |
| 2026-04-28 18:32 | 43.80465 | 11.27984 | 38530 ft | 458 kts | 138° |
| 2026-04-28 18:32 | 43.78089 | 11.30927 | 38676 ft | 458 kts | 138° |
| 2026-04-28 18:32 | 43.75711 | 11.33868 | 38817 ft | 459 kts | 138° |
| 2026-04-28 18:32 | 43.73333 | 11.36807 | 38952 ft | 458 kts | 138° |
| 2026-04-28 18:33 | 43.70958 | 11.39739 | 39011 ft | 459 kts | 138° |
| 2026-04-28 18:33 | 43.66174 | 11.45635 | 39039 ft | 461 kts | 138° |
| 2026-04-28 18:34 | 43.62195 | 11.50528 | 39038 ft | 461 kts | 138° |
| 2026-04-28 18:34 | 43.57414 | 11.56395 | 39049 ft | 460 kts | 138° |
| 2026-04-28 18:35 | 43.52629 | 11.62256 | 39038 ft | 460 kts | 138° |
| 2026-04-28 18:35 | 43.47847 | 11.68099 | 39039 ft | 459 kts | 138° |
| 2026-04-28 18:36 | 43.43066 | 11.73928 | 39043 ft | 459 kts | 138° |
| 2026-04-28 18:36 | 43.38288 | 11.79742 | 39039 ft | 459 kts | 138° |
| 2026-04-28 18:37 | 43.33512 | 11.85542 | 39035 ft | 458 kts | 138° |
| 2026-04-28 18:37 | 43.28731 | 11.91332 | 39039 ft | 458 kts | 139° |
| 2026-04-28 18:38 | 43.23677 | 11.96549 | 39047 ft | 458 kts | 146° |
| 2026-04-28 18:38 | 43.18363 | 12.01475 | 39035 ft | 458 kts | 146° |
| 2026-04-28 18:39 | 43.13080 | 12.06371 | 39032 ft | 459 kts | 146° |
| 2026-04-28 18:39 | 43.07849 | 12.11279 | 39033 ft | 459 kts | 146° |
| 2026-04-28 18:40 | 43.02548 | 12.16275 | 39028 ft | 460 kts | 146° |
| 2026-04-28 18:40 | 42.97316 | 12.21203 | 39030 ft | 461 kts | 146° |
| 2026-04-28 18:41 | 42.92032 | 12.26167 | 39034 ft | 461 kts | 146° |
| 2026-04-28 18:41 | 42.86741 | 12.31125 | 39047 ft | 462 kts | 146° |
| 2026-04-28 18:42 | 42.81443 | 12.36078 | 39032 ft | 462 kts | 146° |
| 2026-04-28 18:42 | 42.76141 | 12.41026 | 39047 ft | 462 kts | 146° |
| 2026-04-28 18:43 | 42.70837 | 12.45964 | 39040 ft | 462 kts | 146° |
| 2026-04-28 18:43 | 42.65534 | 12.50891 | 39050 ft | 461 kts | 146° |
| 2026-04-28 18:44 | 42.60233 | 12.55806 | 39060 ft | 461 kts | 146° |
| 2026-04-28 18:44 | 42.52292 | 12.63149 | 39075 ft | 460 kts | 146° |
| 2026-04-28 18:45 | 42.47001 | 12.68029 | 39072 ft | 460 kts | 146° |
| 2026-04-28 18:45 | 42.41714 | 12.72896 | 39074 ft | 459 kts | 146° |
| 2026-04-28 18:46 | 42.36430 | 12.77748 | 39084 ft | 459 kts | 146° |
| 2026-04-28 18:46 | 42.31138 | 12.82599 | 39070 ft | 459 kts | 146° |
| 2026-04-28 18:47 | 42.25842 | 12.87446 | 38793 ft | 464 kts | 147° |
| 2026-04-28 18:47 | 42.23155 | 12.89898 | 38244 ft | 466 kts | 147° |
| 2026-04-28 18:47 | 42.20481 | 12.92337 | 37780 ft | 461 kts | 147° |
| 2026-04-28 18:48 | 42.17838 | 12.94747 | 37382 ft | 457 kts | 147° |
| 2026-04-28 18:48 | 42.15218 | 12.97134 | 36990 ft | 452 kts | 147° |
| 2026-04-28 18:48 | 42.12630 | 12.99489 | 36589 ft | 448 kts | 147° |
| 2026-04-28 18:48 | 42.10091 | 13.01795 | 36207 ft | 444 kts | 147° |
| 2026-04-28 18:49 | 42.07541 | 13.04111 | 35831 ft | 440 kts | 147° |
| 2026-04-28 18:49 | 42.05827 | 13.05665 | 35567 ft | 438 kts | 147° |
| 2026-04-28 18:49 | 42.02492 | 13.08686 | 34995 ft | 435 kts | 147° |
| 2026-04-28 18:49 | 41.99987 | 13.10954 | 34612 ft | 433 kts | 147° |
| 2026-04-28 18:50 | 41.97496 | 13.13206 | 34223 ft | 430 kts | 147° |
| 2026-04-28 18:50 | 41.95019 | 13.15444 | 33798 ft | 428 kts | 147° |
| 2026-04-28 18:50 | 41.92556 | 13.17667 | 33371 ft | 425 kts | 147° |
| 2026-04-28 18:50 | 41.90110 | 13.19873 | 32968 ft | 422 kts | 147° |
| 2026-04-28 18:51 | 41.87682 | 13.22060 | 32583 ft | 419 kts | 147° |
| 2026-04-28 18:51 | 41.85273 | 13.24229 | 32223 ft | 415 kts | 147° |
| 2026-04-28 18:51 | 41.82882 | 13.26379 | 31840 ft | 412 kts | 147° |
| 2026-04-28 18:51 | 41.80507 | 13.28514 | 31475 ft | 409 kts | 147° |
| 2026-04-28 18:52 | 41.78155 | 13.30626 | 31111 ft | 406 kts | 147° |
| 2026-04-28 18:52 | 41.75813 | 13.32726 | 30758 ft | 404 kts | 147° |
| 2026-04-28 18:52 | 41.73525 | 13.34888 | 30397 ft | 402 kts | 141° |
| 2026-04-28 18:52 | 41.71518 | 13.37457 | 30161 ft | 397 kts | 134° |
| 2026-04-28 18:53 | 41.69643 | 13.40152 | 29754 ft | 395 kts | 133° |
| 2026-04-28 18:53 | 41.67798 | 13.42847 | 29400 ft | 391 kts | 133° |
| 2026-04-28 18:53 | 41.65970 | 13.45517 | 29017 ft | 388 kts | 133° |
| 2026-04-28 18:53 | 41.64152 | 13.48157 | 28660 ft | 384 kts | 133° |
| 2026-04-28 18:54 | 41.62340 | 13.50770 | 28289 ft | 381 kts | 133° |
| 2026-04-28 18:54 | 41.60540 | 13.53354 | 27932 ft | 378 kts | 133° |
| 2026-04-28 18:54 | 41.58750 | 13.55915 | 27573 ft | 376 kts | 133° |
| 2026-04-28 18:54 | 41.56973 | 13.58453 | 27218 ft | 373 kts | 134° |
| 2026-04-28 18:55 | 41.55204 | 13.60974 | 26864 ft | 371 kts | 133° |
| 2026-04-28 18:55 | 41.54038 | 13.62636 | 26639 ft | 369 kts | 133° |
| 2026-04-28 18:55 | 41.51699 | 13.65964 | 26175 ft | 366 kts | 133° |
| 2026-04-28 18:55 | 41.49961 | 13.68435 | 25829 ft | 364 kts | 133° |
| 2026-04-28 18:56 | 41.48233 | 13.70890 | 25484 ft | 362 kts | 133° |
| 2026-04-28 18:56 | 41.46513 | 13.73332 | 25136 ft | 360 kts | 133° |
| 2026-04-28 18:56 | 41.44801 | 13.75760 | 24799 ft | 359 kts | 133° |
| 2026-04-28 18:56 | 41.43096 | 13.78177 | 24462 ft | 357 kts | 133° |
| 2026-04-28 18:57 | 41.41397 | 13.80583 | 24127 ft | 356 kts | 133° |
| 2026-04-28 18:57 | 41.39704 | 13.82978 | 23786 ft | 354 kts | 133° |
| 2026-04-28 18:57 | 41.38015 | 13.85367 | 23390 ft | 354 kts | 133° |
| 2026-04-28 18:57 | 41.36354 | 13.87715 | 23013 ft | 352 kts | 133° |
| 2026-04-28 18:58 | 41.34657 | 13.90111 | 22645 ft | 350 kts | 133° |
| 2026-04-28 18:58 | 41.32992 | 13.92459 | 22310 ft | 348 kts | 134° |
| 2026-04-28 18:58 | 41.31338 | 13.94784 | 21966 ft | 346 kts | 135° |
| 2026-04-28 18:58 | 41.29529 | 13.96797 | 21631 ft | 343 kts | 147° |
| 2026-04-28 18:59 | 41.27474 | 13.98323 | 21430 ft | 335 kts | 158° |
| 2026-04-28 18:59 | 41.25325 | 13.99479 | 21120 ft | 332 kts | 160° |
| 2026-04-28 18:59 | 41.23170 | 14.00567 | 20798 ft | 330 kts | 160° |
| 2026-04-28 18:59 | 41.21024 | 14.01636 | 20475 ft | 329 kts | 160° |
| 2026-04-28 19:00 | 41.18890 | 14.02704 | 20162 ft | 327 kts | 160° |
| 2026-04-28 19:00 | 41.16767 | 14.03773 | 19838 ft | 326 kts | 160° |
| 2026-04-28 19:00 | 41.14653 | 14.04843 | 19517 ft | 325 kts | 160° |
| 2026-04-28 19:00 | 41.12548 | 14.05914 | 19194 ft | 324 kts | 160° |
| 2026-04-28 19:01 | 41.10449 | 14.06984 | 18872 ft | 323 kts | 160° |
| 2026-04-28 19:01 | 41.08356 | 14.08052 | 18559 ft | 322 kts | 160° |
| 2026-04-28 19:01 | 41.06267 | 14.09118 | 18200 ft | 322 kts | 160° |
| 2026-04-28 19:01 | 41.04181 | 14.10183 | 17860 ft | 321 kts | 160° |
| 2026-04-28 19:02 | 41.02105 | 14.11243 | 17501 ft | 319 kts | 160° |
| 2026-04-28 19:02 | 41.00042 | 14.12295 | 17180 ft | 317 kts | 160° |
| 2026-04-28 19:02 | 40.97987 | 14.13343 | 16861 ft | 316 kts | 160° |
| 2026-04-28 19:02 | 40.95944 | 14.14384 | 16553 ft | 314 kts | 160° |
| 2026-04-28 19:03 | 40.93912 | 14.15419 | 16237 ft | 312 kts | 160° |
| 2026-04-28 19:03 | 40.91889 | 14.16449 | 15923 ft | 311 kts | 160° |
| 2026-04-28 19:03 | 40.89877 | 14.17472 | 15614 ft | 309 kts | 160° |
| 2026-04-28 19:03 | 40.87873 | 14.18491 | 15306 ft | 308 kts | 160° |
| 2026-04-28 19:04 | 40.85877 | 14.19505 | 14991 ft | 307 kts | 160° |
| 2026-04-28 19:04 | 40.83889 | 14.20514 | 14693 ft | 305 kts | 159° |
| 2026-04-28 19:04 | 40.81908 | 14.21519 | 14382 ft | 304 kts | 159° |
| 2026-04-28 19:04 | 40.79933 | 14.22520 | 14075 ft | 303 kts | 159° |
| 2026-04-28 19:05 | 40.77965 | 14.23517 | 13753 ft | 303 kts | 159° |
| 2026-04-28 19:05 | 40.76003 | 14.24511 | 13417 ft | 301 kts | 159° |
| 2026-04-28 19:05 | 40.74050 | 14.25499 | 13093 ft | 300 kts | 159° |
| 2026-04-28 19:05 | 40.72108 | 14.26482 | 12780 ft | 298 kts | 159° |
| 2026-04-28 19:06 | 40.70178 | 14.27457 | 12473 ft | 296 kts | 159° |
| 2026-04-28 19:06 | 40.68910 | 14.28098 | 12272 ft | 295 kts | 159° |
| 2026-04-28 19:06 | 40.66359 | 14.29386 | 11860 ft | 292 kts | 159° |
| 2026-04-28 19:06 | 40.64464 | 14.30343 | 11571 ft | 291 kts | 159° |
| 2026-04-28 19:07 | 40.62580 | 14.31293 | 11277 ft | 289 kts | 160° |
| 2026-04-28 19:07 | 40.60705 | 14.32237 | 10988 ft | 288 kts | 160° |
| 2026-04-28 19:07 | 40.58832 | 14.33143 | 10688 ft | 286 kts | 166° |
| 2026-04-28 19:07 | 40.56869 | 14.33286 | 10396 ft | 283 kts | 188° |
| 2026-04-28 19:08 | 40.54965 | 14.32889 | 10179 ft | 278 kts | 190° |
| 2026-04-28 19:08 | 40.53083 | 14.32483 | 10040 ft | 271 kts | 189° |
| 2026-04-28 19:08 | 40.51220 | 14.32092 | 9738 ft | 271 kts | 189° |
| 2026-04-28 19:08 | 40.49365 | 14.31710 | 9448 ft | 269 kts | 189° |
| 2026-04-28 19:09 | 40.47521 | 14.31335 | 9168 ft | 267 kts | 189° |
| 2026-04-28 19:09 | 40.45678 | 14.31351 | 8864 ft | 267 kts | 165° |
| 2026-04-28 19:09 | 40.44033 | 14.32416 | 8612 ft | 265 kts | 143° |
| 2026-04-28 19:09 | 40.42625 | 14.33956 | 8351 ft | 263 kts | 140° |
| 2026-04-28 19:10 | 40.41246 | 14.35522 | 8076 ft | 261 kts | 140° |
| 2026-04-28 19:10 | 40.39870 | 14.37074 | 7804 ft | 260 kts | 140° |
| 2026-04-28 19:10 | 40.38497 | 14.38606 | 7536 ft | 259 kts | 140° |
| 2026-04-28 19:10 | 40.37125 | 14.40128 | 7269 ft | 258 kts | 140° |
| 2026-04-28 19:11 | 40.35757 | 14.41641 | 7002 ft | 257 kts | 140° |
| 2026-04-28 19:11 | 40.34547 | 14.43343 | 6706 ft | 257 kts | 119° |
| 2026-04-28 19:11 | 40.34092 | 14.45584 | 6456 ft | 257 kts | 90° |
| 2026-04-28 19:11 | 40.34519 | 14.47835 | 6194 ft | 257 kts | 62° |
| 2026-04-28 19:12 | 40.35557 | 14.49751 | 6115 ft | 257 kts | 51° |
| 2026-04-28 19:12 | 40.36727 | 14.51535 | 6062 ft | 258 kts | 50° |
| 2026-04-28 19:12 | 40.37883 | 14.53276 | 6039 ft | 247 kts | 50° |
| 2026-04-28 19:12 | 40.38981 | 14.54933 | 6038 ft | 235 kts | 50° |
| 2026-04-28 19:13 | 40.40020 | 14.56522 | 6045 ft | 225 kts | 50° |
| 2026-04-28 19:13 | 40.41027 | 14.58078 | 6050 ft | 224 kts | 50° |
| 2026-04-28 19:13 | 40.42048 | 14.59661 | 6070 ft | 230 kts | 50° |
| 2026-04-28 19:13 | 40.43134 | 14.61237 | 6060 ft | 236 kts | 38° |
| 2026-04-28 19:14 | 40.44630 | 14.62043 | 6057 ft | 235 kts | 3° |
| 2026-04-28 19:14 | 40.46206 | 14.61619 | 6046 ft | 234 kts | 329° |
| 2026-04-28 19:14 | 40.47341 | 14.60141 | 6067 ft | 232 kts | 296° |
| 2026-04-28 19:14 | 40.47689 | 14.58112 | 6060 ft | 230 kts | 263° |
| 2026-04-28 19:15 | 40.47178 | 14.56160 | 6070 ft | 227 kts | 236° |
| 2026-04-28 19:15 | 40.46212 | 14.54513 | 6065 ft | 229 kts | 229° |
| 2026-04-28 19:15 | 40.45168 | 14.52927 | 6064 ft | 230 kts | 228° |
| 2026-04-28 19:15 | 40.44474 | 14.51875 | 6049 ft | 231 kts | 228° |
| 2026-04-28 19:16 | 40.43070 | 14.49725 | 6058 ft | 232 kts | 228° |
| 2026-04-28 19:16 | 40.41801 | 14.48468 | 6056 ft | 230 kts | 198° |
| 2026-04-28 19:16 | 40.40238 | 14.48309 | 6050 ft | 228 kts | 166° |
| 2026-04-28 19:16 | 40.38861 | 14.49265 | 6046 ft | 227 kts | 135° |
| 2026-04-28 19:17 | 40.38074 | 14.51033 | 6071 ft | 228 kts | 104° |
| 2026-04-28 19:17 | 40.38123 | 14.53092 | 6064 ft | 230 kts | 71° |
| 2026-04-28 19:17 | 40.38918 | 14.54901 | 5990 ft | 230 kts | 52° |
| 2026-04-28 19:17 | 40.39943 | 14.56506 | 5737 ft | 230 kts | 50° |
| 2026-04-28 19:18 | 40.40994 | 14.58097 | 5442 ft | 232 kts | 50° |
| 2026-04-28 19:18 | 40.42043 | 14.59699 | 5201 ft | 231 kts | 50° |
| 2026-04-28 19:18 | 40.43098 | 14.61282 | 4957 ft | 230 kts | 49° |
| 2026-04-28 19:18 | 40.44145 | 14.62882 | 4658 ft | 232 kts | 51° |
| 2026-04-28 19:19 | 40.45169 | 14.64487 | 4407 ft | 232 kts | 51° |
| 2026-04-28 19:19 | 40.46205 | 14.66111 | 4158 ft | 232 kts | 50° |
| 2026-04-28 19:19 | 40.47232 | 14.67716 | 3971 ft | 228 kts | 50° |
| 2026-04-28 19:19 | 40.48252 | 14.69311 | 3749 ft | 227 kts | 50° |
| 2026-04-28 19:20 | 40.49266 | 14.70895 | 3500 ft | 227 kts | 50° |
| 2026-04-28 19:20 | 40.50279 | 14.72477 | 3261 ft | 226 kts | 50° |
| 2026-04-28 19:20 | 40.51289 | 14.74055 | 3017 ft | 225 kts | 50° |
| 2026-04-28 19:20 | 40.52295 | 14.75628 | 2776 ft | 224 kts | 50° |
| 2026-04-28 19:21 | 40.53293 | 14.77187 | 2520 ft | 220 kts | 50° |
| 2026-04-28 19:21 | 40.54257 | 14.78695 | 2313 ft | 209 kts | 50° |
| 2026-04-28 19:21 | 40.55158 | 14.80105 | 2059 ft | 194 kts | 50° |
| 2026-04-28 19:21 | 40.55997 | 14.81418 | 1800 ft | 181 kts | 50° |
| 2026-04-28 19:22 | 40.56786 | 14.82654 | 1574 ft | 172 kts | 50° |
| 2026-04-28 19:22 | 40.57043 | 14.83055 | 1486 ft | 168 kts | 50° |
| 2026-04-28 19:22 | 40.57973 | 14.84511 | 1253 ft | 144 kts | 50° |
| 2026-04-28 19:22 | 40.58624 | 14.85531 | 1068 ft | 161 kts | 50° |
| 2026-04-28 19:23 | 40.59362 | 14.86663 | 1157 ft | 146 kts | 49° |
| 2026-04-28 19:23 | 40.60051 | 14.87732 | 718 ft | 169 kts | 52° |
| 2026-04-28 19:23 | 40.60733 | 14.89029 | 584 ft | 174 kts | 66° |
| 2026-04-28 19:23 | 40.60708 | 14.90539 | 514 ft | 168 kts | 121° |
| 2026-04-28 19:24 | 40.59822 | 14.91502 | 552 ft | 171 kts | 164° |
| 2026-04-28 19:24 | 40.58661 | 14.91448 | 1157 ft | 170 kts | 204° |
| 2026-04-28 19:24 | 40.57831 | 14.90396 | 1956 ft | 171 kts | 250° |
| 2026-04-28 19:24 | 40.57646 | 14.88867 | 2748 ft | 171 kts | 263° |
| 2026-04-28 19:25 | 40.57490 | 14.87267 | 3405 ft | 183 kts | 262° |
| 2026-04-28 19:25 | 40.57325 | 14.85572 | 3932 ft | 191 kts | 262° |
| 2026-04-28 19:25 | 40.57159 | 14.83853 | 3943 ft | 185 kts | 259° |
| 2026-04-28 19:25 | 40.56589 | 14.82365 | 4034 ft | 197 kts | 226° |
| 2026-04-28 19:26 | 40.55583 | 14.80876 | 4034 ft | 229 kts | 229° |
| 2026-04-28 19:26 | 40.54565 | 14.79274 | 3999 ft | 226 kts | 230° |
| 2026-04-28 19:26 | 40.53564 | 14.77690 | 3995 ft | 224 kts | 230° |
| 2026-04-28 19:26 | 40.52571 | 14.76124 | 3989 ft | 222 kts | 230° |
| 2026-04-28 19:27 | 40.51578 | 14.74561 | 3993 ft | 223 kts | 230° |
| 2026-04-28 19:27 | 40.50580 | 14.72993 | 4001 ft | 224 kts | 229° |
| 2026-04-28 19:27 | 40.49582 | 14.71429 | 4002 ft | 224 kts | 230° |
| 2026-04-28 19:27 | 40.48580 | 14.69858 | 4002 ft | 224 kts | 230° |
| 2026-04-28 19:28 | 40.47575 | 14.68286 | 4003 ft | 225 kts | 229° |
| 2026-04-28 19:28 | 40.46569 | 14.66713 | 4000 ft | 224 kts | 229° |
| 2026-04-28 19:28 | 40.45565 | 14.65146 | 4000 ft | 224 kts | 229° |
| 2026-04-28 19:28 | 40.44564 | 14.63583 | 4001 ft | 223 kts | 229° |
| 2026-04-28 19:29 | 40.43564 | 14.62025 | 4005 ft | 223 kts | 229° |
| 2026-04-28 19:29 | 40.42906 | 14.60994 | 4005 ft | 223 kts | 231° |
| 2026-04-28 19:29 | 40.42381 | 14.58443 | 4022 ft | 222 kts | 272° |
| 2026-04-28 19:29 | 40.42434 | 14.56410 | 4011 ft | 224 kts | 270° |
| 2026-04-28 19:30 | 40.42419 | 14.54366 | 4006 ft | 224 kts | 268° |
| 2026-04-28 19:30 | 40.42373 | 14.52316 | 4008 ft | 225 kts | 267° |
| 2026-04-28 19:30 | 40.42313 | 14.50264 | 4011 ft | 225 kts | 266° |
| 2026-04-28 19:30 | 40.41910 | 14.48340 | 4002 ft | 223 kts | 236° |
| 2026-04-28 19:31 | 40.40727 | 14.47039 | 4008 ft | 222 kts | 201° |
| 2026-04-28 19:31 | 40.39233 | 14.46810 | 4001 ft | 214 kts | 170° |
| 2026-04-28 19:31 | 40.37880 | 14.47365 | 3992 ft | 195 kts | 157° |
| 2026-04-28 19:31 | 40.36958 | 14.48499 | 3987 ft | 182 kts | 109° |
| 2026-04-28 19:32 | 40.36980 | 14.50124 | 4029 ft | 185 kts | 74° |
| 2026-04-28 19:32 | 40.37434 | 14.51700 | 4001 ft | 184 kts | 60° |
| 2026-04-28 19:32 | 40.38234 | 14.52982 | 4012 ft | 181 kts | 46° |
| 2026-04-28 19:32 | 40.39126 | 14.54142 | 4000 ft | 180 kts | 45° |
| 2026-04-28 19:33 | 40.40021 | 14.55291 | 4003 ft | 180 kts | 45° |
| 2026-04-28 19:33 | 40.40913 | 14.56439 | 4004 ft | 180 kts | 45° |
| 2026-04-28 19:33 | 40.41812 | 14.57616 | 4007 ft | 180 kts | 51° |
| 2026-04-28 19:33 | 40.42416 | 14.59042 | 4016 ft | 179 kts | 71° |
| 2026-04-28 19:34 | 40.42704 | 14.60640 | 4002 ft | 181 kts | 86° |
| 2026-04-28 19:34 | 40.42984 | 14.62223 | 4005 ft | 182 kts | 68° |
| 2026-04-28 19:34 | 40.43590 | 14.63679 | 3985 ft | 185 kts | 45° |
| 2026-04-28 19:34 | 40.44558 | 14.64773 | 4009 ft | 185 kts | 41° |
| 2026-04-28 19:35 | 40.45524 | 14.65894 | 4012 ft | 186 kts | 42° |
| 2026-04-28 19:35 | 40.46492 | 14.67018 | 3944 ft | 185 kts | 42° |
| 2026-04-28 19:35 | 40.47456 | 14.68133 | 3872 ft | 184 kts | 42° |
| 2026-04-28 19:35 | 40.48352 | 14.69372 | 3704 ft | 184 kts | 50° |
| 2026-04-28 19:36 | 40.49159 | 14.70647 | 3520 ft | 183 kts | 51° |
| 2026-04-28 19:36 | 40.49970 | 14.71932 | 3335 ft | 182 kts | 51° |
| 2026-04-28 19:36 | 40.50773 | 14.73214 | 3142 ft | 181 kts | 51° |
| 2026-04-28 19:36 | 40.51575 | 14.74480 | 2944 ft | 179 kts | 51° |
| 2026-04-28 19:37 | 40.52372 | 14.75734 | 2751 ft | 178 kts | 50° |
| 2026-04-28 19:37 | 40.52908 | 14.76575 | 2630 ft | 178 kts | 51° |
| 2026-04-28 19:37 | 40.53961 | 14.78225 | 2379 ft | 178 kts | 50° |
| 2026-04-28 19:37 | 40.54751 | 14.79465 | 2137 ft | 176 kts | 50° |
| 2026-04-28 19:38 | 40.55560 | 14.80673 | 1859 ft | 177 kts | 47° |
| 2026-04-28 19:38 | 40.56404 | 14.81848 | 1528 ft | 175 kts | 47° |
| 2026-04-28 19:38 | 40.57154 | 14.83004 | 1425 ft | 153 kts | 53° |
| 2026-04-28 19:38 | 40.57772 | 14.84117 | 1136 ft | 149 kts | 54° |
| 2026-04-28 19:39 | 40.58382 | 14.85183 | 952 ft | 144 kts | 52° |
| 2026-04-28 19:39 | 40.59008 | 14.86233 | 750 ft | 148 kts | 51° |
| 2026-04-28 19:39 | 40.59657 | 14.87314 | 511 ft | 152 kts | 51° |
| 2026-04-28 19:39 | 40.60308 | 14.88420 | 329 ft | 152 kts | 52° |
| 2026-04-28 19:40 | 40.60959 | 14.89509 | 124 ft | 150 kts | 52° |
| 2026-04-28 19:40 | 40.61562 | 14.90527 | 83 ft | 123 kts | 52° |
| 2026-04-28 19:40 | 40.62006 | 14.91275 | 88 ft | 85 kts | 52° |
| 2026-04-28 19:40 | 40.62276 | 14.91732 | 84 ft | 43 kts | 60° |
| 2026-04-28 19:41 | 40.62251 | 14.91948 | 83 ft | 12 kts | 141° |
| 2026-04-28 19:41 | 40.62230 | 14.91967 | 87 ft | 0 kts | 147° |
| 2026-04-28 19:42 | 40.62209 | 14.91977 | 88 ft | 9 kts | 156° |
| 2026-04-28 19:42 | 40.62164 | 14.92018 | 83 ft | 14 kts | 138° |
| 2026-04-28 19:43 | 40.62149 | 14.92037 | 85 ft | 1 kts | 129° |
| 2026-04-28 19:43 | 40.62136 | 14.92054 | 84 ft | 4 kts | 140° |
| 2026-04-28 19:43 | 40.62132 | 14.92057 | 84 ft | 1 kts | 140° |
| 2026-04-28 19:43 | 40.62132 | 14.92058 | 84 ft | 0 kts | 140° |